Matsuyama Maru No.11 — JD3027 — position and weather

sailwx.info

Track history (hours):
 
Tides and Currents Weather Stations Pressure Air Temp Water Temp Dewpoint Dewpoint Depression Visibility Wind Speed Wind Dir Waves Ship Positions

Matsuyama Maru No.11

Last reported at 2017-Dec-11 16:58 UTC. Time now 2017-Dec-11 21:03 UTC.
Position N 33°52' E 131°06'.

Length 104 m; draft 5 m.

Type: Tanker. MMSI: 431001151.

Date/timePositionNaut miles runAvg speedWind from/ knotsBaromVisibWave heightAir tempDewpointWater temp
2017-Dec-11 16:58N 33°52' E 131°06'0 0.0
2017-Dec-11 16:28N 33°52' E 131°06'0 0.1
2017-Dec-11 15:58N 33°52' E 131°06'0 0.0
2017-Dec-11 15:28N 33°52' E 131°06'0 0.0
2017-Dec-11 14:55N 33°52' E 131°06'0 0.4
2017-Dec-11 14:30N 33°52' E 131°06'4 7.6
2017-Dec-11 14:00N 33°52' E 131°11'510.3
2017-Dec-11 13:30N 33°52' E 131°17'510.7
2017-Dec-11 13:00N 33°53' E 131°23'612.8
2017-Dec-11 12:30N 33°54' E 131°31'713.2
2017-Dec-11 12:00N 33°57' E 131°38'612.0
2017-Dec-11 11:29N 33°59' E 131°45'2 2.6
2017-Dec-11 10:53N 33°59' E 131°47'0 0.0
2017-Dec-11 10:30N 33°59' E 131°47'0 0.0
2017-Dec-11 09:57N 33°59' E 131°47'0 0.0
2017-Dec-11 09:30N 33°59' E 131°47'0 0.0
2017-Dec-11 09:00N 33°59' E 131°47'0 0.0
2017-Dec-11 08:30N 33°59' E 131°47'0 0.0
2017-Dec-11 08:00N 33°59' E 131°47'0 0.0
2017-Dec-11 07:30N 33°59' E 131°47'0 0.0
2017-Dec-11 07:00N 33°59' E 131°47'0 0.0
2017-Dec-11 06:30N 33°59' E 131°47'0 0.0
2017-Dec-11 06:00N 33°59' E 131°47'0 0.0
2017-Dec-11 05:30N 33°59' E 131°47'0 0.4
2017-Dec-11 05:00N 33°59' E 131°47'1 2.1
2017-Dec-11 04:30N 34°00' E 131°48'0 0.0
2017-Dec-11 04:00N 34°00' E 131°48'0 0.0
2017-Dec-11 03:30N 34°00' E 131°48'0 0.0
2017-Dec-11 03:00N 34°00' E 131°48'0 0.0
2017-Dec-11 02:30N 34°00' E 131°48'0 0.0
2017-Dec-11 02:00N 34°00' E 131°48'0 0.0
2017-Dec-11 01:30N 34°00' E 131°48'0 0.0
2017-Dec-11 01:00N 34°00' E 131°48'0 0.0
2017-Dec-11 00:30N 34°00' E 131°48'0 0.0
2017-Dec-11 00:00N 34°00' E 131°48'0 0.2
2017-Dec-10 23:30N 34°00' E 131°47'1 1.8
2017-Dec-10 22:56N 34°01' E 131°47'0 0.0
2017-Dec-10 22:29N 34°01' E 131°47'0 0.0
2017-Dec-10 21:59N 34°01' E 131°47'0 0.0
2017-Dec-10 21:29N 34°01' E 131°47'1 1.9
2017-Dec-10 20:58N 34°02' E 131°47'0 0.0
2017-Dec-09 23:01N 34°02' E 131°47'0 0.8
2017-Dec-09 22:44N 34°02' E 131°47'2 7.4
2017-Dec-09 22:26N 34°00' E 131°46'1 1.3
2017-Dec-09 21:57N 33°60' E 131°46'0 0.0
2017-Dec-09 21:03N 33°60' E 131°46'0 0.1
2017-Dec-09 20:54N 33°59' E 131°46'0 0.0
2017-Dec-09 20:24N 33°60' E 131°46'0 0.0
2017-Dec-09 19:51N 33°60' E 131°46'0 0.0
2017-Dec-09 19:27N 33°60' E 131°46'0 0.1
2017-Dec-09 18:57N 33°59' E 131°46'0 0.0
2017-Dec-09 18:15N 33°59' E 131°46'0 0.2
2017-Dec-09 17:54N 33°60' E 131°46'0 0.2
2017-Dec-09 17:27N 33°60' E 131°47'0 0.0
2017-Dec-09 16:57N 33°60' E 131°47'0 0.1
2017-Dec-09 16:30N 33°60' E 131°47'0 0.1
2017-Dec-09 15:57N 33°60' E 131°46'0 0.0
2017-Dec-09 15:27N 33°60' E 131°46'0 0.0
2017-Dec-09 14:57N 33°60' E 131°46'0 0.0
2017-Dec-09 14:27N 33°59' E 131°46'0 0.0
2017-Dec-09 13:57N 33°60' E 131°46'0 0.0
2017-Dec-09 13:27N 33°59' E 131°46'0 0.0
2017-Dec-09 12:51N 33°60' E 131°46'0 0.1
2017-Dec-09 12:27N 33°59' E 131°46'0 0.0
2017-Dec-09 11:57N 33°59' E 131°46'0 0.1
2017-Dec-09 11:31N 33°60' E 131°46'4 7.6
2017-Dec-09 10:57N 33°55' E 131°46'713.7
2017-Dec-09 10:28N 33°50' E 131°51'2012.3
2017-Dec-09 08:52N 33°43' E 132°13'1014.4
2017-Dec-09 08:10N 33°46' E 132°25'414.4
2017-Dec-09 07:52N 33°49' E 132°30'614.4
2017-Dec-09 07:28N 33°52' E 132°35'613.9
2017-Dec-09 07:00N 33°56' E 132°41'1012.2
2017-Dec-09 06:10N 34°03' E 132°50'4 0.5
2017-Dec-08 22:09N 34°01' E 132°46'110.4
2017-Dec-08 22:00N 33°60' E 132°45'611.5
2017-Dec-08 21:30N 33°56' E 132°40'611.9
2017-Dec-08 21:00N 33°51' E 132°35'612.3
2017-Dec-08 20:30N 33°47' E 132°29'2812.5
2017-Dec-08 18:14N 33°43' E 131°56'313.9
2017-Dec-08 18:00N 33°44' E 131°52'713.7
2017-Dec-08 17:30N 33°50' E 131°48'714.0
2017-Dec-08 17:00N 33°56' E 131°44'3 6.9
2017-Dec-08 16:31N 33°59' E 131°47'0 0.5
2017-Dec-08 16:01N 33°59' E 131°47'0 0.0
2017-Dec-08 15:31N 33°59' E 131°47'0 0.0
2017-Dec-08 15:00N 33°59' E 131°47'0 0.0
2017-Dec-08 14:31N 33°59' E 131°47'0 0.0
2017-Dec-08 14:01N 33°59' E 131°47'0 0.0
2017-Dec-08 13:31N 33°59' E 131°47'0 0.0
2017-Dec-08 13:01N 33°59' E 131°47'0 0.0
2017-Dec-08 12:31N 33°59' E 131°47'0 0.0
2017-Dec-08 12:00N 33°59' E 131°47'0 0.0
2017-Dec-08 11:30N 33°59' E 131°47'0 0.0
2017-Dec-08 11:01N 33°59' E 131°47'0 0.0
2017-Dec-08 10:30N 33°59' E 131°47'0 0.0
2017-Dec-08 10:00N 33°59' E 131°47'0 0.0
2017-Dec-08 09:30N 33°59' E 131°47'0 0.0
2017-Dec-08 09:00N 33°59' E 131°47'0 0.0
2017-Dec-08 08:30N 33°59' E 131°47'0 0.0
2017-Dec-08 08:00N 33°59' E 131°47'0 0.0
2017-Dec-08 07:30N 33°59' E 131°47'0 0.0
2017-Dec-08 07:00N 33°59' E 131°47'0 0.0
2017-Dec-08 06:30N 33°59' E 131°47'0 0.0
2017-Dec-08 06:01N 33°59' E 131°47'0 0.1
2017-Dec-08 05:30N 33°59' E 131°47'0 0.5
2017-Dec-08 05:00N 33°59' E 131°46'0 0.0
2017-Dec-08 04:30N 33°59' E 131°46'0 0.0
2017-Dec-08 04:00N 33°59' E 131°46'0 0.0
2017-Dec-08 03:24N 33°59' E 131°46'0 0.1
2017-Dec-08 03:00N 33°59' E 131°46'0 0.0
2017-Dec-08 02:30N 33°59' E 131°46'0 0.0
2017-Dec-08 02:00N 33°59' E 131°46'0 0.0
2017-Dec-08 01:30N 33°59' E 131°46'0 0.1
2017-Dec-08 00:54N 33°59' E 131°46'0 0.1
2017-Dec-08 00:30N 33°59' E 131°46'0 0.0
2017-Dec-07 23:45N 33°59' E 131°46'0 0.0
2017-Dec-07 23:12N 33°59' E 131°46'0 0.1
2017-Dec-07 22:42N 33°59' E 131°46'0 0.0
2017-Dec-07 22:27N 33°59' E 131°46'0 0.0
2017-Dec-07 22:00N 33°59' E 131°46'0 0.0
2017-Dec-07 21:18N 33°59' E 131°46'0 0.0
2017-Dec-07 21:00N 33°59' E 131°46'0 0.0
2017-Dec-07 20:30N 33°59' E 131°46'0 0.0
2017-Dec-07 20:00N 33°59' E 131°46'1 1.3
2017-Dec-07 19:30N 33°60' E 131°46'4 8.7
2017-Dec-07 19:00N 33°55' E 131°47'612.8
2017-Dec-07 18:30N 33°50' E 131°51'612.5
2017-Dec-07 18:00N 33°45' E 131°56'1213.1
2017-Dec-07 17:05N 33°43' E 132°10'214.1
2017-Dec-07 16:55N 33°43' E 132°13'914.1
2017-Dec-07 16:18N 33°46' E 132°23'513.9
2017-Dec-07 15:55N 33°48' E 132°28'613.7
2017-Dec-07 15:30N 33°52' E 132°34'612.8
2017-Dec-07 15:00N 33°56' E 132°40'611.7
2017-Dec-07 14:30N 34°00' E 132°44'  
2017-Dec-03 22:26N 34°27' E 134°03'715.2
2017-Dec-03 21:59N 34°25' E 134°11'714.4
2017-Dec-03 21:30N 34°24' E 134°19'713.8
2017-Dec-03 20:58N 34°27' E 134°28'613.7
2017-Dec-03 20:30N 34°30' E 134°35'713.8
2017-Dec-03 20:00N 34°32' E 134°43'713.3
2017-Dec-03 19:30N 34°35' E 134°50'612.9
2017-Dec-03 19:00N 34°37' E 134°57'510.5
2017-Dec-03 18:31N 34°36' E 135°04'4 8.0
2017-Dec-03 18:01N 34°32' E 135°04'612.8
2017-Dec-03 17:30N 34°26' E 135°02'612.5
2017-Dec-03 17:00N 34°20' E 135°00'510.6
2017-Dec-03 16:30N 34°14' E 134°60'611.8
2017-Dec-03 16:00N 34°09' E 134°60'612.8
2017-Dec-03 15:30N 34°02' E 135°00'612.8
2017-Dec-03 15:00N 33°56' E 135°01'1012.5
2017-Dec-03 14:14N 33°47' E 135°05'15511.6
2017-Dec-03 00:52N 34°24' E 138°07'712.9
2017-Dec-03 00:21N 34°25' E 138°15'512.8
2017-Dec-02 23:59N 34°26' E 138°20'1312.8
2017-Dec-02 22:58N 34°29' E 138°36'812.9
2017-Dec-02 22:20N 34°30' E 138°46'513.0
2017-Dec-02 21:58N 34°31' E 138°51'612.4
2017-Dec-02 21:30N 34°32' E 138°58'712.6
2017-Dec-02 20:57N 34°34' E 139°06'613.3
2017-Dec-02 20:30N 34°35' E 139°13'612.7
2017-Dec-02 20:00N 34°36' E 139°21'612.9
2017-Dec-02 19:30N 34°38' E 139°28'1012.8
2017-Dec-02 18:45N 34°43' E 139°39'412.4
2017-Dec-02 18:27N 34°45' E 139°42'612.3
2017-Dec-02 17:59N 34°48' E 139°49'1012.9
2017-Dec-02 17:10N 34°53' E 139°59'313.8
2017-Dec-02 16:57N 34°55' E 140°02'614.0
2017-Dec-02 16:30N 34°58' E 140°09'1013.3
2017-Dec-02 15:44N 35°03' E 140°20'  
Track history (hours):
 
Tides and Currents Weather Stations Pressure Air Temp Water Temp Dewpoint Dewpoint Depression Visibility Wind Speed Wind Dir Waves Ship Positions

Matsuyama Maru No.11

Last reported at 2017-Dec-11 16:58 UTC. Time now 2017-Dec-11 21:03 UTC.
Position N 33°52' E 131°06'.

Length 104 m; draft 5 m.

Type: Tanker. MMSI: 431001151.

Date/timePositionNaut miles runAvg speedWind from/ knotsBaromVisibWave heightAir tempDewpointWater temp
2017-Dec-11 16:58N 33°52' E 131°06'0 0.0
2017-Dec-11 16:28N 33°52' E 131°06'0 0.1
2017-Dec-11 15:58N 33°52' E 131°06'0 0.0
2017-Dec-11 15:28N 33°52' E 131°06'0 0.0
2017-Dec-11 14:55N 33°52' E 131°06'0 0.4
2017-Dec-11 14:30N 33°52' E 131°06'4 7.6
2017-Dec-11 14:00N 33°52' E 131°11'510.3
2017-Dec-11 13:30N 33°52' E 131°17'510.7
2017-Dec-11 13:00N 33°53' E 131°23'612.8
2017-Dec-11 12:30N 33°54' E 131°31'713.2
2017-Dec-11 12:00N 33°57' E 131°38'612.0
2017-Dec-11 11:29N 33°59' E 131°45'2 2.6
2017-Dec-11 10:53N 33°59' E 131°47'0 0.0
2017-Dec-11 10:30N 33°59' E 131°47'0 0.0
2017-Dec-11 09:57N 33°59' E 131°47'0 0.0
2017-Dec-11 09:30N 33°59' E 131°47'0 0.0
2017-Dec-11 09:00N 33°59' E 131°47'0 0.0
2017-Dec-11 08:30N 33°59' E 131°47'0 0.0
2017-Dec-11 08:00N 33°59' E 131°47'0 0.0
2017-Dec-11 07:30N 33°59' E 131°47'0 0.0
2017-Dec-11 07:00N 33°59' E 131°47'0 0.0
2017-Dec-11 06:30N 33°59' E 131°47'0 0.0
2017-Dec-11 06:00N 33°59' E 131°47'0 0.0
2017-Dec-11 05:30N 33°59' E 131°47'0 0.4
2017-Dec-11 05:00N 33°59' E 131°47'1 2.1
2017-Dec-11 04:30N 34°00' E 131°48'0 0.0
2017-Dec-11 04:00N 34°00' E 131°48'0 0.0
2017-Dec-11 03:30N 34°00' E 131°48'0 0.0
2017-Dec-11 03:00N 34°00' E 131°48'0 0.0
2017-Dec-11 02:30N 34°00' E 131°48'0 0.0
2017-Dec-11 02:00N 34°00' E 131°48'0 0.0
2017-Dec-11 01:30N 34°00' E 131°48'0 0.0
2017-Dec-11 01:00N 34°00' E 131°48'0 0.0
2017-Dec-11 00:30N 34°00' E 131°48'0 0.0
2017-Dec-11 00:00N 34°00' E 131°48'0 0.2
2017-Dec-10 23:30N 34°00' E 131°47'1 1.8
2017-Dec-10 22:56N 34°01' E 131°47'0 0.0
2017-Dec-10 22:29N 34°01' E 131°47'0 0.0
2017-Dec-10 21:59N 34°01' E 131°47'0 0.0
2017-Dec-10 21:29N 34°01' E 131°47'1 1.9
2017-Dec-10 20:58N 34°02' E 131°47'0 0.0
2017-Dec-09 23:01N 34°02' E 131°47'0 0.8
2017-Dec-09 22:44N 34°02' E 131°47'2 7.4
2017-Dec-09 22:26N 34°00' E 131°46'1 1.3
2017-Dec-09 21:57N 33°60' E 131°46'0 0.0
2017-Dec-09 21:03N 33°60' E 131°46'0 0.1
2017-Dec-09 20:54N 33°59' E 131°46'0 0.0
2017-Dec-09 20:24N 33°60' E 131°46'0 0.0
2017-Dec-09 19:51N 33°60' E 131°46'0 0.0
2017-Dec-09 19:27N 33°60' E 131°46'0 0.1
2017-Dec-09 18:57N 33°59' E 131°46'0 0.0
2017-Dec-09 18:15N 33°59' E 131°46'0 0.2
2017-Dec-09 17:54N 33°60' E 131°46'0 0.2
2017-Dec-09 17:27N 33°60' E 131°47'0 0.0
2017-Dec-09 16:57N 33°60' E 131°47'0 0.1
2017-Dec-09 16:30N 33°60' E 131°47'0 0.1
2017-Dec-09 15:57N 33°60' E 131°46'0 0.0
2017-Dec-09 15:27N 33°60' E 131°46'0 0.0
2017-Dec-09 14:57N 33°60' E 131°46'0 0.0
2017-Dec-09 14:27N 33°59' E 131°46'0 0.0
2017-Dec-09 13:57N 33°60' E 131°46'0 0.0
2017-Dec-09 13:27N 33°59' E 131°46'0 0.0
2017-Dec-09 12:51N 33°60' E 131°46'0 0.1
2017-Dec-09 12:27N 33°59' E 131°46'0 0.0
2017-Dec-09 11:57N 33°59' E 131°46'0 0.1
2017-Dec-09 11:31N 33°60' E 131°46'4 7.6
2017-Dec-09 10:57N 33°55' E 131°46'713.7
2017-Dec-09 10:28N 33°50' E 131°51'2012.3
2017-Dec-09 08:52N 33°43' E 132°13'1014.4
2017-Dec-09 08:10N 33°46' E 132°25'414.4
2017-Dec-09 07:52N 33°49' E 132°30'614.4
2017-Dec-09 07:28N 33°52' E 132°35'613.9
2017-Dec-09 07:00N 33°56' E 132°41'1012.2
2017-Dec-09 06:10N 34°03' E 132°50'4 0.5
2017-Dec-08 22:09N 34°01' E 132°46'110.4
2017-Dec-08 22:00N 33°60' E 132°45'611.5
2017-Dec-08 21:30N 33°56' E 132°40'611.9
2017-Dec-08 21:00N 33°51' E 132°35'612.3
2017-Dec-08 20:30N 33°47' E 132°29'2812.5
2017-Dec-08 18:14N 33°43' E 131°56'313.9
2017-Dec-08 18:00N 33°44' E 131°52'713.7
2017-Dec-08 17:30N 33°50' E 131°48'714.0
2017-Dec-08 17:00N 33°56' E 131°44'3 6.9
2017-Dec-08 16:31N 33°59' E 131°47'0 0.5
2017-Dec-08 16:01N 33°59' E 131°47'0 0.0
2017-Dec-08 15:31N 33°59' E 131°47'0 0.0
2017-Dec-08 15:00N 33°59' E 131°47'0 0.0
2017-Dec-08 14:31N 33°59' E 131°47'0 0.0
2017-Dec-08 14:01N 33°59' E 131°47'0 0.0
2017-Dec-08 13:31N 33°59' E 131°47'0 0.0
2017-Dec-08 13:01N 33°59' E 131°47'0 0.0
2017-Dec-08 12:31N 33°59' E 131°47'0 0.0
2017-Dec-08 12:00N 33°59' E 131°47'0 0.0
2017-Dec-08 11:30N 33°59' E 131°47'0 0.0
2017-Dec-08 11:01N 33°59' E 131°47'0 0.0
2017-Dec-08 10:30N 33°59' E 131°47'0 0.0
2017-Dec-08 10:00N 33°59' E 131°47'0 0.0
2017-Dec-08 09:30N 33°59' E 131°47'0 0.0
2017-Dec-08 09:00N 33°59' E 131°47'0 0.0
2017-Dec-08 08:30N 33°59' E 131°47'0 0.0
2017-Dec-08 08:00N 33°59' E 131°47'0 0.0
2017-Dec-08 07:30N 33°59' E 131°47'0 0.0
2017-Dec-08 07:00N 33°59' E 131°47'0 0.0
2017-Dec-08 06:30N 33°59' E 131°47'0 0.0
2017-Dec-08 06:01N 33°59' E 131°47'0 0.1
2017-Dec-08 05:30N 33°59' E 131°47'0 0.5
2017-Dec-08 05:00N 33°59' E 131°46'0 0.0
2017-Dec-08 04:30N 33°59' E 131°46'0 0.0
2017-Dec-08 04:00N 33°59' E 131°46'0 0.0
2017-Dec-08 03:24N 33°59' E 131°46'0 0.1
2017-Dec-08 03:00N 33°59' E 131°46'0 0.0
2017-Dec-08 02:30N 33°59' E 131°46'0 0.0
2017-Dec-08 02:00N 33°59' E 131°46'0 0.0
2017-Dec-08 01:30N 33°59' E 131°46'0 0.1
2017-Dec-08 00:54N 33°59' E 131°46'0 0.1
2017-Dec-08 00:30N 33°59' E 131°46'0 0.0
2017-Dec-07 23:45N 33°59' E 131°46'0 0.0
2017-Dec-07 23:12N 33°59' E 131°46'0 0.1
2017-Dec-07 22:42N 33°59' E 131°46'0 0.0
2017-Dec-07 22:27N 33°59' E 131°46'0 0.0
2017-Dec-07 22:00N 33°59' E 131°46'0 0.0
2017-Dec-07 21:18N 33°59' E 131°46'0 0.0
2017-Dec-07 21:00N 33°59' E 131°46'0 0.0
2017-Dec-07 20:30N 33°59' E 131°46'0 0.0
2017-Dec-07 20:00N 33°59' E 131°46'1 1.3
2017-Dec-07 19:30N 33°60' E 131°46'4 8.7
2017-Dec-07 19:00N 33°55' E 131°47'612.8
2017-Dec-07 18:30N 33°50' E 131°51'612.5
2017-Dec-07 18:00N 33°45' E 131°56'1213.1
2017-Dec-07 17:05N 33°43' E 132°10'214.1
2017-Dec-07 16:55N 33°43' E 132°13'914.1
2017-Dec-07 16:18N 33°46' E 132°23'513.9
2017-Dec-07 15:55N 33°48' E 132°28'613.7
2017-Dec-07 15:30N 33°52' E 132°34'612.8
2017-Dec-07 15:00N 33°56' E 132°40'611.7
2017-Dec-07 14:30N 34°00' E 132°44'  
2017-Dec-03 22:26N 34°27' E 134°03'715.2
2017-Dec-03 21:59N 34°25' E 134°11'714.4
2017-Dec-03 21:30N 34°24' E 134°19'713.8
2017-Dec-03 20:58N 34°27' E 134°28'613.7
2017-Dec-03 20:30N 34°30' E 134°35'713.8
2017-Dec-03 20:00N 34°32' E 134°43'713.3
2017-Dec-03 19:30N 34°35' E 134°50'612.9
2017-Dec-03 19:00N 34°37' E 134°57'510.5
2017-Dec-03 18:31N 34°36' E 135°04'4 8.0
2017-Dec-03 18:01N 34°32' E 135°04'612.8
2017-Dec-03 17:30N 34°26' E 135°02'612.5
2017-Dec-03 17:00N 34°20' E 135°00'510.6
2017-Dec-03 16:30N 34°14' E 134°60'611.8
2017-Dec-03 16:00N 34°09' E 134°60'612.8
2017-Dec-03 15:30N 34°02' E 135°00'612.8
2017-Dec-03 15:00N 33°56' E 135°01'1012.5
2017-Dec-03 14:14N 33°47' E 135°05'15511.6
2017-Dec-03 00:52N 34°24' E 138°07'712.9
2017-Dec-03 00:21N 34°25' E 138°15'512.8
2017-Dec-02 23:59N 34°26' E 138°20'1312.8
2017-Dec-02 22:58N 34°29' E 138°36'812.9
2017-Dec-02 22:20N 34°30' E 138°46'513.0
2017-Dec-02 21:58N 34°31' E 138°51'612.4
2017-Dec-02 21:30N 34°32' E 138°58'712.6
2017-Dec-02 20:57N 34°34' E 139°06'613.3
2017-Dec-02 20:30N 34°35' E 139°13'612.7
2017-Dec-02 20:00N 34°36' E 139°21'612.9
2017-Dec-02 19:30N 34°38' E 139°28'1012.8
2017-Dec-02 18:45N 34°43' E 139°39'412.4
2017-Dec-02 18:27N 34°45' E 139°42'612.3
2017-Dec-02 17:59N 34°48' E 139°49'1012.9
2017-Dec-02 17:10N 34°53' E 139°59'313.8
2017-Dec-02 16:57N 34°55' E 140°02'614.0
2017-Dec-02 16:30N 34°58' E 140°09'1013.3
2017-Dec-02 15:44N 35°03' E 140°20'  

Dump ship's entire track history